Time;durP1;ratioP1;P1;durP2;ratioP2;P2;SDS_P1;SDS_P2;PMS_P1;PMS_P2;Temp;Humidity;BMP_temperature;BMP_pressure;BME280_temperature;BME280_humidity;BME280_pressure;Samples;Min_cycle;Max_cycle;Signal;HPM_P1;HPM_P2
2022/04/26 03:36:07;;;;;;;33.88;5.00;;;28.40;18.60;;;;;;5088197;28;20099;-69
2022/04/26 03:38:33;;;;;;;28.38;4.93;;;28.30;18.60;;;;;;5087328;28;20069;-69
2022/04/26 03:41:00;;;;;;;26.75;4.50;;;28.20;19.40;;;;;;5069799;28;20099;-68
2022/04/26 03:43:26;;;;;;;28.75;4.93;;;28.10;19.20;;;;;;5070096;28;20091;-68
2022/04/26 03:45:53;;;;;;;23.73;4.68;;;28.00;19.00;;;;;;5070345;28;20070;-68
2022/04/26 03:48:19;;;;;;;19.55;4.57;;;27.90;18.90;;;;;;5072822;28;20104;-69
2022/04/26 03:50:46;;;;;;;28.77;4.82;;;27.90;18.60;;;;;;5068992;28;20098;-66
2022/04/26 03:53:12;;;;;;;24.58;4.57;;;27.80;18.80;;;;;;5070614;28;20099;-69
2022/04/26 03:55:39;;;;;;;29.27;4.85;;;27.70;18.50;;;;;;5070106;28;20068;-68
2022/04/26 03:58:05;;;;;;;18.80;4.45;;;27.60;18.90;;;;;;5069324;28;20448;-65
2022/04/26 04:00:32;;;;;;;30.30;4.90;;;27.60;19.20;;;;;;5069719;28;20128;-72
2022/04/26 04:02:58;;;;;;;27.42;5.78;;;27.60;19.30;;;;;;5069804;28;20085;-67
2022/04/26 04:05:25;;;;;;;41.63;5.85;;;27.50;18.60;;;;;;5068595;28;20109;-68
2022/04/26 04:07:51;;;;;;;28.60;6.03;;;27.40;19.40;;;;;;5088502;28;20160;-70
2022/04/26 04:10:18;;;;;;;32.25;5.80;;;27.30;20.00;;;;;;5068514;28;20465;-66
2022/04/26 04:12:44;;;;;;;33.17;5.95;;;27.20;19.50;;;;;;5069221;28;20066;-71
2022/04/26 04:15:10;;;;;;;30.13;5.47;;;27.10;19.50;;;;;;5074435;28;20515;-68
2022/04/26 04:17:37;;;;;;;26.25;6.80;;;26.90;19.80;;;;;;5068342;28;20542;-67
2022/04/26 04:20:04;;;;;;;42.50;8.05;;;26.90;20.10;;;;;;5066253;28;20160;-69
2022/04/26 04:22:30;;;;;;;75.68;8.77;;;26.80;20.60;;;;;;5060512;28;20094;-67
2022/04/26 04:24:57;;;;;;;66.20;9.40;;;26.80;21.20;;;;;;5062842;28;20162;-68
2022/04/26 04:27:23;;;;;;;58.85;8.77;;;26.70;21.30;;;;;;5057992;28;20591;-69
2022/04/26 04:29:51;;;;;;;61.92;9.10;;;26.60;21.20;;;;;;5085262;28;20068;-67
2022/04/26 04:32:18;;;;;;;53.83;8.65;;;26.60;21.20;;;;;;5064564;28;20068;-67
2022/04/26 04:34:44;;;;;;;65.22;9.70;;;26.50;21.20;;;;;;5087502;28;20082;-68
2022/04/26 04:37:11;;;;;;;49.63;7.82;;;26.40;21.20;;;;;;5068805;28;20447;-68
2022/04/26 04:39:37;;;;;;;52.63;8.43;;;26.20;21.20;;;;;;5086038;28;20486;-70
2022/04/26 04:42:04;;;;;;;63.47;8.55;;;26.20;21.40;;;;;;5068075;28;20180;-68
2022/04/26 04:44:30;;;;;;;68.82;9.45;;;26.10;21.40;;;;;;5068579;28;20512;-70
2022/04/26 04:47:00;;;;;;;71.75;9.63;;;26.00;21.60;;;;;;5065464;28;20083;-69
2022/04/26 04:49:27;;;;;;;70.82;8.85;;;26.00;21.70;;;;;;5066443;28;20102;-66
2022/04/26 04:51:53;;;;;;;72.30;10.35;;;26.00;22.00;;;;;;5072241;28;20153;-69
2022/04/26 04:54:20;;;;;;;63.88;11.07;;;25.90;22.30;;;;;;5069570;28;20528;-70
2022/04/26 04:56:46;;;;;;;63.40;9.00;;;25.80;21.90;;;;;;5070130;28;20074;-68
2022/04/26 04:59:12;;;;;;;55.10;8.40;;;25.70;21.90;;;;;;5087150;28;20076;-67
2022/04/26 05:01:39;;;;;;;64.03;9.60;;;25.60;22.00;;;;;;5086530;28;20114;-69
2022/04/26 05:04:05;;;;;;;73.22;9.50;;;25.40;22.30;;;;;;5051313;28;20526;-69
2022/04/26 05:06:32;;;;;;;60.92;9.32;;;25.40;22.60;;;;;;5084667;28;20114;-68
2022/04/26 05:08:58;;;;;;;57.15;8.65;;;25.40;22.60;;;;;;5067511;28;20164;-68
2022/04/26 05:11:24;;;;;;;44.22;8.70;;;25.30;22.60;;;;;;5068517;28;20520;-70
2022/04/26 05:13:52;;;;;;;56.92;8.45;;;25.30;22.60;;;;;;5068109;28;20117;-67
2022/04/26 05:16:18;;;;;;;51.33;9.35;;;25.20;22.70;;;;;;5067517;28;20504;-70
2022/04/26 05:18:46;;;;;;;60.15;9.70;;;25.10;22.80;;;;;;5063633;28;20123;-67
2022/04/26 05:21:17;;;;;;;50.80;8.88;;;25.00;23.10;;;;;;5046798;28;20484;-66
2022/04/26 05:26:29;;;;;;;49.65;12.50;;;25.00;23.20;;;;;;5090050;28;20094;-67
2022/04/26 05:29:01;;;;;;;62.33;14.80;;;25.00;23.10;;;;;;5085348;28;20072;-67
2022/04/26 05:31:28;;;;;;;64.82;15.57;;;25.00;22.90;;;;;;5064603;28;20512;-67
2022/04/26 05:33:54;;;;;;;65.07;17.90;;;25.00;22.90;;;;;;5035759;28;20079;-66
2022/04/26 05:36:24;;;;;;;50.10;17.33;;;25.00;23.20;;;;;;5066791;28;20529;-67
2022/04/26 05:38:51;;;;;;;55.88;17.75;;;24.90;23.00;;;;;;5083723;28;20079;-68
2022/04/26 05:41:19;;;;;;;64.47;15.05;;;24.80;23.10;;;;;;5051567;28;20099;-68
2022/04/26 05:43:48;;;;;;;47.63;14.05;;;24.80;23.10;;;;;;5052172;28;20068;-67
2022/04/26 05:46:19;;;;;;;48.25;12.90;;;24.70;23.40;;;;;;5087069;28;20494;-68
2022/04/26 05:48:46;;;;;;;51.33;12.48;;;24.60;23.90;;;;;;5039359;28;20541;-66
2022/04/26 05:51:12;;;;;;;62.75;12.32;;;24.60;23.90;;;;;;5067968;28;20067;-68
2022/04/26 05:53:39;;;;;;;57.58;13.10;;;24.60;23.80;;;;;;5069122;28;20068;-70
2022/04/26 05:56:06;;;;;;;47.58;12.30;;;24.50;23.90;;;;;;5070130;28;20134;-67
2022/04/26 05:58:34;;;;;;;51.20;11.90;;;24.40;24.00;;;;;;5087609;28;20470;-66
2022/04/26 06:01:00;;;;;;;52.75;12.02;;;24.40;24.10;;;;;;5052807;28;20072;-66
2022/04/26 06:03:30;;;;;;;41.50;12.20;;;24.40;24.10;;;;;;5053271;28;894806;-67
2022/04/26 06:05:57;;;;;;;46.78;12.93;;;24.40;24.60;;;;;;5058039;28;20072;-66
2022/04/26 06:08:23;;;;;;;59.65;12.02;;;24.30;24.40;;;;;;5070497;28;20090;-69
2022/04/26 06:10:52;;;;;;;39.78;11.07;;;24.20;24.30;;;;;;5087741;28;20088;-67
2022/04/26 06:13:20;;;;;;;53.83;12.82;;;24.20;24.20;;;;;;5069458;28;20166;-68
2022/04/26 06:15:47;;;;;;;43.80;11.98;;;24.10;24.00;;;;;;5070088;28;20080;-68
2022/04/26 06:18:16;;;;;;;56.00;12.55;;;24.00;23.90;;;;;;5072386;28;20198;-68
2022/04/26 06:20:46;;;;;;;41.35;10.95;;;23.90;24.00;;;;;;5053758;28;20101;-68
2022/04/26 06:23:12;;;;;;;47.33;12.23;;;23.90;24.30;;;;;;5054774;28;20145;-67
2022/04/26 06:25:40;;;;;;;57.03;12.23;;;23.80;24.50;;;;;;5069281;28;20075;-68
2022/04/26 06:28:11;;;;;;;37.25;11.32;;;23.80;24.40;;;;;;5086786;28;20067;-68
2022/04/26 06:30:42;;;;;;;33.80;10.82;;;23.80;24.50;;;;;;5071573;28;20170;-69
2022/04/26 06:33:08;;;;;;;43.13;10.57;;;23.70;24.40;;;;;;5054092;28;20545;-68
2022/04/26 06:35:35;;;;;;;38.35;10.65;;;23.70;24.70;;;;;;5068239;28;20559;-70
2022/04/26 06:38:02;;;;;;;33.92;11.05;;;23.60;25.00;;;;;;5075417;28;20089;-70
2022/04/26 06:40:34;;;;;;;39.65;11.60;;;23.50;25.30;;;;;;5088907;28;20074;-70
2022/04/26 06:43:00;;;;;;;39.28;11.15;;;23.40;25.70;;;;;;5071372;28;20088;-67
2022/04/26 06:45:28;;;;;;;46.15;11.10;;;23.30;25.90;;;;;;5086327;28;20538;-68
2022/04/26 06:47:56;;;;;;;44.25;11.55;;;23.30;25.90;;;;;;5070155;28;20075;-70
2022/04/26 06:50:25;;;;;;;41.53;10.82;;;23.30;26.00;;;;;;5088930;28;20076;-71
2022/04/26 06:52:51;;;;;;;38.25;10.98;;;23.20;26.10;;;;;;5036075;28;20616;-70
2022/04/26 06:55:17;;;;;;;40.28;11.18;;;23.20;26.10;;;;;;5071940;28;20102;-69
2022/04/26 06:57:46;;;;;;;50.80;12.30;;;23.10;26.00;;;;;;5088292;28;20102;-68
2022/04/26 07:00:14;;;;;;;42.00;11.90;;;23.00;26.00;;;;;;5070341;28;20076;-70
2022/04/26 07:02:42;;;;;;;46.75;10.82;;;22.80;26.30;;;;;;5054509;28;20446;-68
2022/04/26 07:05:11;;;;;;;43.92;11.27;;;22.80;26.50;;;;;;5070362;28;20106;-70
2022/04/26 07:07:39;;;;;;;44.67;11.88;;;22.90;26.60;;;;;;5051748;28;20084;-68
2022/04/26 07:10:08;;;;;;;40.80;11.18;;;22.80;26.70;;;;;;5054035;28;20071;-71
2022/04/26 07:12:35;;;;;;;44.63;11.45;;;22.80;26.80;;;;;;5053324;28;20083;-69
2022/04/26 07:15:06;;;;;;;38.00;10.95;;;22.70;26.70;;;;;;5066462;28;20072;-68
2022/04/26 07:17:33;;;;;;;39.72;10.43;;;22.80;26.70;;;;;;5059802;28;20072;-67
2022/04/26 07:20:00;;;;;;;38.90;10.35;;;22.70;26.80;;;;;;5070637;28;20075;-69
2022/04/26 07:22:27;;;;;;;34.63;10.30;;;22.60;26.80;;;;;;5086439;28;20144;-67
2022/04/26 07:24:53;;;;;;;43.30;9.48;;;22.70;26.90;;;;;;5067065;28;20602;-69
2022/04/26 07:27:20;;;;;;;32.13;7.28;;;22.80;26.90;;;;;;5091506;28;20425;-69
2022/04/26 07:29:51;;;;;;;28.90;7.22;;;22.80;26.70;;;;;;5068659;28;20078;-70
2022/04/26 07:32:17;;;;;;;28.48;7.35;;;22.80;26.30;;;;;;5070869;28;20076;-67
2022/04/26 07:34:45;;;;;;;41.80;7.43;;;22.80;26.10;;;;;;5070872;28;20103;-68
2022/04/26 07:37:11;;;;;;;33.13;7.07;;;22.80;25.80;;;;;;5071926;28;20102;-68
2022/04/26 07:39:38;;;;;;;25.88;6.90;;;22.80;25.70;;;;;;5072077;28;20075;-68
2022/04/26 07:42:05;;;;;;;38.70;6.18;;;22.70;25.60;;;;;;5070253;28;20434;-69
2022/04/26 07:44:34;;;;;;;37.00;6.47;;;22.60;25.40;;;;;;5086798;28;20099;-70
2022/04/26 07:47:04;;;;;;;19.58;5.15;;;22.60;25.40;;;;;;5069845;28;20079;-70
2022/04/26 07:49:31;;;;;;;27.05;6.22;;;22.60;25.40;;;;;;5070939;28;20520;-71
2022/04/26 07:51:57;;;;;;;28.25;5.88;;;22.60;25.60;;;;;;5069119;28;20100;-69
2022/04/26 07:54:24;;;;;;;39.65;6.68;;;22.60;25.70;;;;;;5067519;28;20150;-70
2022/04/26 07:56:50;;;;;;;39.80;6.90;;;22.60;25.90;;;;;;5088306;28;20071;-68
2022/04/26 07:59:17;;;;;;;44.58;7.13;;;22.60;26.60;;;;;;5088447;28;20075;-69
2022/04/26 08:01:43;;;;;;;35.55;6.13;;;22.40;26.30;;;;;;5068888;28;20088;-70
2022/04/26 08:04:10;;;;;;;34.95;6.82;;;22.40;26.30;;;;;;5087443;28;20107;-68
2022/04/26 08:06:36;;;;;;;31.80;6.07;;;22.20;26.10;;;;;;5085579;28;20079;-68
2022/04/26 08:09:03;;;;;;;32.55;5.93;;;22.10;26.30;;;;;;5068715;28;20086;-70
2022/04/26 08:11:29;;;;;;;23.92;5.35;;;22.00;26.30;;;;;;5064774;28;20093;-68
2022/04/26 08:13:56;;;;;;;32.58;5.70;;;22.00;26.40;;;;;;5068370;28;20091;-67
2022/04/26 08:16:23;;;;;;;42.08;5.90;;;22.00;26.40;;;;;;5067325;28;20098;-68
2022/04/26 08:18:49;;;;;;;38.80;5.85;;;22.00;26.50;;;;;;5064850;28;20102;-70
2022/04/26 08:21:17;;;;;;;32.75;6.65;;;22.00;26.50;;;;;;5069450;28;20071;-68
2022/04/26 08:29:16;;;;;;;23.40;5.30;;;21.80;26.60;;;;;;5086041;28;20121;-68
2022/04/26 08:31:43;;;;;;;45.38;5.70;;;21.80;26.70;;;;;;5068768;28;20523;-68
2022/04/26 08:34:09;;;;;;;33.03;6.43;;;21.70;26.70;;;;;;5067443;28;20080;-70
2022/04/26 08:36:36;;;;;;;36.60;6.25;;;21.70;26.80;;;;;;5067778;28;20090;-70
2022/04/26 08:39:03;;;;;;;36.30;5.80;;;21.60;26.80;;;;;;5068278;28;20063;-68
2022/04/26 08:41:29;;;;;;;34.28;6.38;;;21.60;26.90;;;;;;5068163;28;20518;-67
2022/04/26 08:43:56;;;;;;;29.67;5.63;;;21.50;26.90;;;;;;5067919;28;20082;-69
2022/04/26 08:50:59;;;;;;;31.67;5.47;;;21.40;27.00;;;;;;5070057;28;20072;-67
2022/04/26 08:52:00;;;;;;;30.42;5.90;;;21.30;27.20;;;;;;5086188;28;20082;-70
2022/04/26 08:54:29;;;;;;;39.47;5.72;;;21.30;27.20;;;;;;5069186;28;20117;-68
2022/04/26 08:56:55;;;;;;;38.38;5.88;;;21.20;27.20;;;;;;5083171;28;20457;-70
2022/04/26 08:59:22;;;;;;;28.65;5.25;;;21.20;27.00;;;;;;5087246;28;20083;-67
2022/04/26 09:01:48;;;;;;;24.33;5.47;;;21.20;26.60;;;;;;5069289;28;20091;-69
2022/04/26 09:04:17;;;;;;;34.22;5.03;;;21.10;26.10;;;;;;5068906;28;20103;-68
2022/04/26 09:06:46;;;;;;;17.90;4.50;;;21.10;25.90;;;;;;5087601;28;20063;-69
2022/04/26 09:09:15;;;;;;;19.38;4.30;;;21.10;25.60;;;;;;5066271;28;20067;-68
2022/04/26 09:11:43;;;;;;;27.10;5.13;;;21.10;25.40;;;;;;5084328;28;20596;-67
2022/04/26 09:14:35;;;;;;;21.88;4.95;;;21.10;25.40;;;;;;5069416;28;20178;-68
2022/04/26 09:17:09;;;;;;;20.13;4.47;;;21.10;25.30;;;;;;5068125;28;20447;-69
2022/04/26 09:19:50;;;;;;;14.18;4.03;;;21.00;25.40;;;;;;5086541;28;20079;-68
2022/04/26 09:22:22;;;;;;;19.55;3.97;;;21.10;25.40;;;;;;5067486;28;20182;-70
2022/04/26 09:24:57;;;;;;;14.30;4.40;;;21.10;25.50;;;;;;5085799;28;20483;-68
2022/04/26 09:27:25;;;;;;;25.75;5.22;;;21.20;25.60;;;;;;5068315;28;20103;-68
2022/04/26 09:29:51;;;;;;;20.67;4.25;;;21.20;25.20;;;;;;5066592;28;20067;-69
2022/04/26 09:32:18;;;;;;;14.73;3.72;;;21.30;25.30;;;;;;5067729;28;20476;-70
2022/04/26 09:34:44;;;;;;;22.75;4.30;;;21.30;25.40;;;;;;5069956;28;20079;-70
2022/04/26 09:37:12;;;;;;;20.92;4.50;;;21.30;25.30;;;;;;5066370;28;20075;-69
2022/04/26 09:39:41;;;;;;;20.77;4.40;;;21.30;25.30;;;;;;5089954;28;20414;-68
2022/04/26 09:42:08;;;;;;;20.90;3.92;;;21.20;25.40;;;;;;5052478;28;20178;-67
2022/04/26 09:44:40;;;;;;;19.58;4.80;;;21.30;26.00;;;;;;5066911;28;20461;-71
2022/04/26 09:47:07;;;;;;;16.58;4.57;;;21.30;25.60;;;;;;5067437;28;20068;-67
2022/04/26 09:49:38;;;;;;;16.10;4.47;;;21.20;25.40;;;;;;5089638;28;20071;-69
2022/04/26 09:52:08;;;;;;;7.10;3.78;;;21.20;25.50;;;;;;5068498;28;20088;-69
2022/04/26 09:54:37;;;;;;;13.82;4.15;;;21.10;25.30;;;;;;5064916;28;20083;-70
2022/04/26 09:57:06;;;;;;;13.38;4.25;;;21.00;25.20;;;;;;5087382;28;20076;-72
2022/04/26 09:59:38;;;;;;;21.20;4.47;;;21.00;25.70;;;;;;5069733;28;20099;-71
2022/04/26 10:02:08;;;;;;;15.43;4.45;;;21.00;25.80;;;;;;5086794;28;20175;-67
2022/04/26 10:04:45;;;;;;;19.02;3.97;;;21.00;25.70;;;;;;5082247;28;20107;-68
2022/04/26 10:07:17;;;;;;;17.85;4.65;;;20.90;25.60;;;;;;5068843;28;20528;-71
2022/04/26 10:09:46;;;;;;;15.90;4.10;;;20.80;25.60;;;;;;5069711;28;20458;-70
2022/04/26 10:12:15;;;;;;;13.82;5.20;;;20.80;25.50;;;;;;5065082;28;20076;-67
2022/04/26 10:14:43;;;;;;;15.77;5.00;;;20.70;25.50;;;;;;5062727;28;20092;-68
2022/04/26 10:17:09;;;;;;;16.33;5.03;;;20.70;25.50;;;;;;5068873;28;20174;-70
2022/04/26 10:19:38;;;;;;;18.40;5.65;;;20.70;25.50;;;;;;5087538;28;20079;-68
2022/04/26 10:22:05;;;;;;;23.05;6.13;;;20.60;25.60;;;;;;5066545;28;20098;-67
2022/04/26 10:24:32;;;;;;;25.23;6.25;;;20.60;25.40;;;;;;5068738;28;20107;-70
2022/04/26 10:27:23;;;;;;;19.25;5.40;;;20.60;24.90;;;;;;5071719;28;20091;-68
2022/04/26 10:29:49;;;;;;;20.63;5.18;;;20.60;24.60;;;;;;5093542;28;20421;-68
2022/04/26 10:32:42;;;;;;;13.93;4.78;;;20.70;24.00;;;;;;5089878;28;20088;-68
2022/04/26 10:35:27;;;;;;;19.40;4.28;;;20.90;22.90;;;;;;5066750;28;20075;-68
2022/04/26 10:38:11;;;;;;;15.40;4.32;;;21.00;22.30;;;;;;5090142;28;20525;-71
2022/04/26 10:41:06;;;;;;;18.63;4.13;;;21.10;21.80;;;;;;5073036;28;20086;-69
2022/04/26 10:43:32;;;;;;;14.60;4.10;;;21.20;21.80;;;;;;5067932;28;20091;-67
2022/04/26 10:46:12;;;;;;;16.20;3.88;;;21.20;22.00;;;;;;5089936;28;20110;-68
2022/04/26 10:48:39;;;;;;;14.43;4.30;;;21.20;22.20;;;;;;5070209;28;20114;-71
2022/04/26 10:51:33;;;;;;;13.05;3.65;;;21.20;21.90;;;;;;5072200;28;20163;-69
2022/04/26 10:54:00;;;;;;;13.75;3.67;;;21.20;21.80;;;;;;5070635;28;20087;-67
2022/04/26 10:56:27;;;;;;;12.93;3.85;;;21.20;22.10;;;;;;5072307;28;20078;-69
2022/04/26 10:58:54;;;;;;;15.98;3.70;;;21.20;22.20;;;;;;5065126;28;20086;-68
2022/04/26 11:01:24;;;;;;;18.63;3.47;;;21.10;22.40;;;;;;5070723;28;20501;-72
2022/04/26 11:03:58;;;;;;;11.15;3.53;;;21.00;22.60;;;;;;5069550;28;20106;-68
2022/04/26 11:06:39;;;;;;;13.23;3.75;;;21.00;22.90;;;;;;5069275;28;20075;-68
2022/04/26 11:09:10;;;;;;;13.93;3.72;;;21.00;23.20;;;;;;5068890;28;20079;-70
2022/04/26 11:11:54;;;;;;;14.13;3.90;;;21.00;23.20;;;;;;5070576;28;20167;-67
2022/04/26 11:14:22;;;;;;;18.50;3.90;;;20.90;23.10;;;;;;5070547;28;20225;-70
2022/04/26 11:17:00;;;;;;;14.15;4.35;;;20.90;23.40;;;;;;5093256;28;20113;-69
2022/04/26 11:19:29;;;;;;;12.35;3.10;;;21.00;24.00;;;;;;5071413;28;20079;-68
2022/04/26 11:21:56;;;;;;;10.15;3.30;;;20.90;24.30;;;;;;5070358;28;20182;-67
2022/04/26 11:29:54;;;;;;;12.23;3.75;;;20.80;25.30;;;;;;5087737;28;20484;-71
2022/04/26 11:32:43;;;;;;;12.25;3.63;;;20.70;25.30;;;;;;5088558;28;20072;-70
2022/04/26 11:35:17;;;;;;;15.38;3.72;;;20.50;25.40;;;;;;5070553;28;20072;-71
2022/04/26 11:37:54;;;;;;;16.00;4.63;;;20.30;25.10;;;;;;5085896;28;20515;-71
2022/04/26 11:40:28;;;;;;;10.63;4.25;;;20.20;25.20;;;;;;5069939;28;20071;-68
2022/04/26 11:42:59;;;;;;;15.93;4.30;;;20.20;25.10;;;;;;5070264;28;20084;-67
2022/04/26 11:45:28;;;;;;;11.25;3.85;;;20.10;25.10;;;;;;5070745;28;20693;-67
2022/04/26 11:47:56;;;;;;;13.82;4.55;;;20.10;25.20;;;;;;5087688;28;20429;-68
2022/04/26 11:50:28;;;;;;;8.82;3.90;;;20.20;25.30;;;;;;5073409;28;20532;-70
2022/04/26 11:53:15;;;;;;;7.40;3.75;;;20.10;25.30;;;;;;5069537;28;20094;-69
2022/04/26 11:55:52;;;;;;;11.93;4.50;;;20.10;25.40;;;;;;5070352;28;20525;-70
2022/04/26 11:58:27;;;;;;;16.45;4.03;;;19.90;25.50;;;;;;5069371;28;20170;-68
2022/04/26 12:01:02;;;;;;;12.02;4.22;;;20.00;25.80;;;;;;5071270;28;20537;-69
2022/04/26 12:03:46;;;;;;;11.75;3.80;;;20.00;25.80;;;;;;5062239;28;20545;-69
2022/04/26 12:06:18;;;;;;;15.73;4.60;;;20.00;25.90;;;;;;5067783;28;20091;-69
2022/04/26 12:08:50;;;;;;;24.35;6.45;;;19.90;25.90;;;;;;5069914;28;20068;-70
2022/04/26 12:11:26;;;;;;;13.07;4.90;;;20.00;26.90;;;;;;5070608;28;20131;-71
2022/04/26 12:14:06;;;;;;;13.13;6.20;;;19.90;26.70;;;;;;5091841;28;20174;-70
2022/04/26 12:17:00;;;;;;;18.33;8.13;;;19.70;26.20;;;;;;5068943;28;20083;-69
2022/04/26 12:19:37;;;;;;;20.83;9.15;;;19.50;26.30;;;;;;5088225;28;20151;-71
2022/04/26 12:22:06;;;;;;;26.42;8.73;;;19.50;26.10;;;;;;5069771;28;20093;-70
2022/04/26 12:24:44;;;;;;;17.23;8.18;;;19.50;25.90;;;;;;5068183;28;20076;-68
2022/04/26 12:27:26;;;;;;;27.85;8.80;;;19.50;25.30;;;;;;5070025;28;20074;-68
2022/04/26 12:29:53;;;;;;;19.40;7.85;;;19.50;25.50;;;;;;5069634;28;20482;-70
2022/04/26 12:32:26;;;;;;;19.40;7.57;;;19.50;25.40;;;;;;5070249;28;20094;-68
2022/04/26 12:34:55;;;;;;;18.13;6.05;;;19.60;25.00;;;;;;5070900;28;20166;-70
2022/04/26 12:37:33;;;;;;;14.07;6.18;;;19.60;24.50;;;;;;5069313;28;20071;-68
2022/04/26 12:40:15;;;;;;;18.33;6.80;;;19.60;24.30;;;;;;5068117;28;20090;-70
2022/04/26 12:42:43;;;;;;;13.43;6.25;;;19.50;24.30;;;;;;5087617;28;20094;-68
2022/04/26 12:45:23;;;;;;;18.08;6.70;;;19.50;24.30;;;;;;5086203;28;20067;-70
2022/04/26 12:51:12;;;;;;;20.65;6.82;;;19.50;25.00;;;;;;5086921;28;20149;-68
2022/04/26 12:53:38;;;;;;;25.55;6.97;;;19.40;25.10;;;;;;5084502;28;20072;-68
2022/04/26 12:56:10;;;;;;;20.88;6.40;;;19.40;25.00;;;;;;5068980;28;20079;-69
2022/04/26 12:58:38;;;;;;;22.27;6.43;;;19.40;25.50;;;;;;5072490;28;20387;-68
2022/04/26 13:01:06;;;;;;;24.85;6.68;;;19.40;25.10;;;;;;5082587;28;20080;-67
2022/04/26 13:03:34;;;;;;;26.70;6.10;;;19.40;25.20;;;;;;5067987;28;20095;-69
2022/04/26 13:06:12;;;;;;;23.02;6.38;;;19.40;25.30;;;;;;5086716;28;20121;-68
2022/04/26 13:08:45;;;;;;;28.55;7.03;;;19.30;25.40;;;;;;5085710;28;20084;-67
2022/04/26 13:11:14;;;;;;;27.50;5.82;;;19.30;25.40;;;;;;5065953;28;20430;-70
2022/04/26 13:13:41;;;;;;;28.75;6.30;;;19.50;26.10;;;;;;5069299;28;20114;-69
2022/04/26 13:16:08;;;;;;;32.83;6.43;;;19.50;26.20;;;;;;5087351;28;20161;-69
2022/04/26 13:18:35;;;;;;;39.53;7.13;;;19.50;26.60;;;;;;5067240;28;20162;-69
2022/04/26 13:21:02;;;;;;;35.72;7.72;;;19.60;27.30;;;;;;5085781;28;20607;-69
2022/04/26 13:23:30;;;;;;;38.13;7.68;;;19.60;27.40;;;;;;5066984;28;20091;-69
2022/04/26 13:25:59;;;;;;;30.75;8.02;;;19.50;27.70;;;;;;5086242;28;20466;-68
2022/04/26 13:28:26;;;;;;;41.30;7.60;;;19.60;28.00;;;;;;5051968;28;20156;-69
2022/04/26 13:30:52;;;;;;;49.80;8.90;;;19.50;27.10;;;;;;5087527;28;20477;-67
2022/04/26 13:33:19;;;;;;;38.78;8.57;;;19.50;28.00;;;;;;5068322;28;20091;-67
2022/04/26 13:35:46;;;;;;;40.20;8.25;;;19.60;28.50;;;;;;5067325;28;20479;-68
2022/04/26 13:38:14;;;;;;;48.13;8.10;;;19.60;28.00;;;;;;5063549;28;20082;-67
2022/04/26 13:40:41;;;;;;;48.97;8.88;;;19.60;29.20;;;;;;5067977;28;20122;-70
2022/04/26 13:43:09;;;;;;;66.63;7.75;;;19.70;29.00;;;;;;5068283;28;20187;-70
2022/04/26 13:45:35;;;;;;;65.13;11.20;;;19.70;29.40;;;;;;5068645;28;20068;-69
2022/04/26 13:48:08;;;;;;;49.92;7.88;;;19.70;30.00;;;;;;5062552;28;20098;-67
2022/04/26 13:50:35;;;;;;;44.72;9.88;;;19.70;30.00;;;;;;5063599;28;20074;-67
2022/04/26 13:53:02;;;;;;;52.10;9.82;;;19.70;30.20;;;;;;5066505;28;20068;-68
2022/04/26 13:55:28;;;;;;;51.95;10.23;;;19.70;30.60;;;;;;5066325;28;20075;-67
2022/04/26 13:57:55;;;;;;;51.58;9.75;;;19.80;31.10;;;;;;5063250;28;20075;-67
2022/04/26 14:00:22;;;;;;;84.10;12.07;;;19.90;31.20;;;;;;5085840;28;20091;-68
2022/04/26 14:02:49;;;;;;;64.85;11.05;;;19.90;31.90;;;;;;5070603;28;20549;-69
2022/04/26 14:05:16;;;;;;;45.15;9.38;;;20.00;32.30;;;;;;5085704;28;20600;-68
2022/04/26 14:07:46;;;;;;;69.43;10.55;;;20.10;30.40;;;;;;5066565;28;20068;-69
2022/04/26 14:10:14;;;;;;;52.25;9.82;;;20.20;31.20;;;;;;5069370;28;20067;-68
2022/04/26 14:12:40;;;;;;;67.90;13.45;;;20.30;31.00;;;;;;5066667;28;20080;-66
2022/04/26 14:23:26;;;;;;;54.78;10.73;;;20.90;29.70;;;;;;5090160;28;20098;-66
2022/04/26 14:25:52;;;;;;;48.53;10.50;;;21.10;29.60;;;;;;5071861;28;20094;-67
2022/04/26 14:28:19;;;;;;;51.65;10.27;;;21.10;28.80;;;;;;5071182;28;20110;-67
2022/04/26 14:30:45;;;;;;;67.97;10.32;;;21.30;29.20;;;;;;5072502;28;20158;-67
2022/04/26 14:33:13;;;;;;;48.85;10.30;;;21.50;29.80;;;;;;5072464;28;20092;-67
2022/04/26 14:35:39;;;;;;;47.97;9.80;;;21.60;28.00;;;;;;5090038;28;20528;-67
2022/04/26 14:38:10;;;;;;;42.40;9.05;;;21.80;28.20;;;;;;5072224;28;20083;-70
2022/04/26 14:40:37;;;;;;;47.88;9.82;;;22.00;27.20;;;;;;5086895;28;20131;-67
2022/04/26 14:43:09;;;;;;;54.13;9.57;;;22.20;27.90;;;;;;5066003;28;20483;-67
2022/04/26 14:45:44;;;;;;;52.63;9.30;;;22.30;26.60;;;;;;5088866;28;20075;-66
2022/04/26 14:48:12;;;;;;;57.72;10.10;;;22.60;26.50;;;;;;5070056;28;20114;-69
2022/04/26 14:50:39;;;;;;;46.78;9.98;;;22.90;25.90;;;;;;5064578;28;20074;-70
2022/04/26 14:53:06;;;;;;;50.28;8.93;;;23.20;26.10;;;;;;5085024;28;20452;-69
2022/04/26 14:55:32;;;;;;;48.05;9.23;;;23.60;24.90;;;;;;5071833;28;20081;-69
2022/04/26 14:57:59;;;;;;;35.40;8.75;;;23.90;24.50;;;;;;5073026;28;20066;-68
2022/04/26 15:00:25;;;;;;;54.40;11.82;;;24.30;24.30;;;;;;5077473;28;20487;-67
2022/04/26 15:02:52;;;;;;;47.35;11.55;;;24.60;23.40;;;;;;5068039;28;20088;-68
2022/04/26 15:05:19;;;;;;;61.80;11.73;;;24.80;23.10;;;;;;5087902;28;20110;-67
2022/04/26 15:10:30;;;;;;;61.63;13.88;;;25.10;23.30;;;;;;5084052;28;20437;-68
2022/04/26 15:18:27;;;;;;;129.10;18.70;;;25.30;23.00;;;;;;5084772;28;20098;-68
2022/04/26 15:20:54;;;;;;;128.95;18.20;;;25.40;23.60;;;;;;5087094;28;20059;-67
2022/04/26 15:23:22;;;;;;;131.88;18.80;;;25.50;23.50;;;;;;5070520;28;20574;-68
2022/04/26 15:25:53;;;;;;;98.13;16.67;;;25.60;22.90;;;;;;5070096;28;20442;-65
2022/04/26 15:28:20;;;;;;;88.70;15.45;;;25.60;22.20;;;;;;5068918;28;20164;-67
2022/04/26 15:30:48;;;;;;;104.28;17.08;;;25.80;22.20;;;;;;5069414;28;20061;-68
2022/04/26 15:33:16;;;;;;;112.28;16.50;;;25.90;22.60;;;;;;5072457;28;20074;-66
2022/04/26 15:35:42;;;;;;;101.45;19.73;;;26.10;22.60;;;;;;5084499;28;20067;-70
2022/04/26 15:38:12;;;;;;;97.90;19.05;;;26.20;23.00;;;;;;5065515;28;20086;-66
2022/04/26 15:40:46;;;;;;;101.25;21.23;;;26.40;23.00;;;;;;5083553;28;20066;-70
2022/04/26 15:43:13;;;;;;;88.63;20.08;;;26.60;22.60;;;;;;5064188;28;20119;-66
2022/04/26 15:45:40;;;;;;;122.90;21.45;;;26.70;22.40;;;;;;5064658;28;20147;-67
2022/04/26 15:48:06;;;;;;;129.48;23.95;;;26.90;22.30;;;;;;5069658;28;20519;-68
2022/04/26 15:50:33;;;;;;;126.70;23.30;;;26.90;22.90;;;;;;5066081;28;20098;-66
2022/04/26 15:52:59;;;;;;;143.50;26.73;;;27.00;23.10;;;;;;5067530;28;20521;-67
2022/04/26 15:55:26;;;;;;;106.93;19.05;;;27.20;23.10;;;;;;5086856;28;20147;-69
2022/04/26 15:57:54;;;;;;;112.03;21.13;;;27.40;21.90;;;;;;5069187;28;20442;-66
2022/04/26 16:00:21;;;;;;;84.40;19.60;;;27.50;21.60;;;;;;5084800;28;20551;-69
2022/04/26 16:02:51;;;;;;;118.13;22.73;;;27.60;21.30;;;;;;5085174;28;20087;-68
2022/04/26 16:05:17;;;;;;;104.60;21.30;;;27.80;21.10;;;;;;5067182;28;20098;-67
2022/04/26 16:07:44;;;;;;;115.70;21.50;;;28.10;21.50;;;;;;5068419;28;20094;-66
2022/04/26 16:21:10;;;;;;;75.40;11.88;;;28.90;19.20;;;;;;5084561;28;20079;-69
2022/04/26 16:23:36;;;;;;;61.60;10.95;;;28.90;18.90;;;;;;5067424;28;20111;-67
2022/04/26 16:26:05;;;;;;;83.10;13.52;;;29.00;18.70;;;;;;5086498;28;20126;-69
2022/04/26 16:28:33;;;;;;;49.50;10.70;;;29.10;18.80;;;;;;5069727;28;20059;-68
2022/04/26 16:31:00;;;;;;;100.15;13.77;;;29.40;18.60;;;;;;5064689;28;20944;-67
2022/04/26 16:33:27;;;;;;;57.20;9.90;;;29.60;19.20;;;;;;5066816;28;20079;-67
2022/04/26 16:35:54;;;;;;;218.98;21.65;;;29.80;18.40;;;;;;5068135;28;20051;-67
2022/04/26 16:38:21;;;;;;;95.32;12.00;;;29.80;18.30;;;;;;5067419;28;20492;-68
2022/04/26 16:40:48;;;;;;;397.25;31.73;;;29.50;18.40;;;;;;5062382;28;20088;-68
2022/04/26 16:43:19;;;;;;;86.03;11.70;;;29.60;17.40;;;;;;5080451;28;20075;-70
2022/04/26 16:45:47;;;;;;;56.38;9.50;;;29.70;17.80;;;;;;5066968;28;20492;-70
2022/04/26 16:48:14;;;;;;;46.50;9.63;;;29.80;17.70;;;;;;5067249;28;20163;-70
2022/04/26 16:50:40;;;;;;;57.95;11.30;;;30.00;17.60;;;;;;5068950;28;20058;-69
2022/04/26 16:53:07;;;;;;;53.80;9.82;;;30.10;18.20;;;;;;5070472;28;20065;-70
2022/04/26 16:55:34;;;;;;;71.45;11.60;;;30.30;19.70;;;;;;5069176;28;20068;-69
2022/04/26 16:58:01;;;;;;;159.13;18.70;;;30.70;19.30;;;;;;5087215;28;20143;-70
2022/04/26 17:00:29;;;;;;;86.43;12.90;;;31.00;19.50;;;;;;5069241;28;20046;-70
2022/04/26 17:02:56;;;;;;;46.88;9.23;;;31.20;17.70;;;;;;5087761;28;20509;-70
2022/04/26 17:05:23;;;;;;;51.25;12.75;;;31.30;17.40;;;;;;5067136;28;20484;-66